Time;durP1;ratioP1;P1;durP2;ratioP2;P2;SDS_P1;SDS_P2;PMS_P1;PMS_P2;Temp;Humidity;BMP_temperature;BMP_pressure;BME280_temperature;BME280_humidity;BME280_pressure;Samples;Min_cycle;Max_cycle;Signal;HPM_P1;HPM_P2
2022/09/06 00:01:50;;;;;;;;;3.75;2.00;;;;;;;;5023861;28;8851;-81
2022/09/06 00:04:17;;;;;;;;;2.00;2.00;;;;;;;;5025143;28;9030;-81
2022/09/06 00:06:48;;;;;;;;;0.00;0.00;;;;;;;;5024961;28;8899;-81
2022/09/06 00:09:15;;;;;;;;;2.00;2.00;;;;;;;;5022622;28;9011;-82
2022/09/06 00:11:44;;;;;;;;;3.75;2.25;;;;;;;;5025889;28;8945;-81
2022/09/06 00:14:11;;;;;;;;;2.00;2.00;;;;;;;;5023684;28;8993;-81
2022/09/06 00:16:39;;;;;;;;;1.00;1.00;;;;;;;;5025010;28;8869;-81
2022/09/06 00:19:08;;;;;;;;;2.00;2.00;;;;;;;;5007017;28;8849;-81
2022/09/06 00:21:35;;;;;;;;;2.25;2.25;;;;;;;;5025036;28;8894;-81
2022/09/06 00:24:03;;;;;;;;;2.00;2.00;;;;;;;;5024307;28;8898;-82
2022/09/06 00:26:30;;;;;;;;;1.00;1.00;;;;;;;;5025210;28;8877;-81
2022/09/06 00:28:57;;;;;;;;;2.00;2.00;;;;;;;;5025421;28;9637;-82
2022/09/06 00:31:26;;;;;;;;;2.25;2.25;;;;;;;;5023790;28;8837;-81
2022/09/06 00:33:53;;;;;;;;;1.75;1.75;;;;;;;;5026216;28;8872;-81
2022/09/06 00:36:22;;;;;;;;;2.75;1.00;;;;;;;;5019674;28;8896;-82
2022/09/06 00:38:50;;;;;;;;;1.75;1.75;;;;;;;;5025742;28;9612;-82
2022/09/06 00:41:17;;;;;;;;;2.00;2.00;;;;;;;;5020934;28;8893;-81
2022/09/06 00:43:45;;;;;;;;;3.50;2.00;;;;;;;;5024235;28;8888;-80
2022/09/06 00:46:16;;;;;;;;;3.25;2.00;;;;;;;;5025105;28;9587;-81
2022/09/06 00:48:44;;;;;;;;;2.00;2.00;;;;;;;;5006467;28;8865;-81
2022/09/06 00:51:14;;;;;;;;;2.00;1.50;;;;;;;;5025132;28;8914;-82
2022/09/06 00:53:44;;;;;;;;;2.00;2.00;;;;;;;;5022339;28;8880;-80
2022/09/06 00:56:11;;;;;;;;;1.50;1.50;;;;;;;;5024710;28;8864;-82
2022/09/06 00:58:39;;;;;;;;;1.00;1.00;;;;;;;;5019555;28;8892;-82
2022/09/06 01:01:07;;;;;;;;;2.00;2.00;;;;;;;;5023615;28;10075;-82
2022/09/06 01:03:34;;;;;;;;;1.00;1.00;;;;;;;;5024212;28;8865;-82
2022/09/06 01:06:12;;;;;;;;;1.75;1.75;;;;;;;;5023308;28;8868;-81
2022/09/06 01:08:51;;;;;;;;;3.00;3.00;;;;;;;;5024595;28;8910;-82
2022/09/06 01:11:31;;;;;;;;;2.75;2.75;;;;;;;;5023020;28;8888;-82
2022/09/06 01:14:08;;;;;;;;;1.75;1.75;;;;;;;;5013882;28;8856;-82
2022/09/06 01:16:40;;;;;;;;;3.00;3.00;;;;;;;;5018621;28;8880;-82
2022/09/06 01:19:31;;;;;;;;;2.00;2.00;;;;;;;;5022994;28;8884;-81
2022/09/06 01:22:09;;;;;;;;;3.00;3.00;;;;;;;;4994765;28;9688;-82
2022/09/06 01:25:04;;;;;;;;;2.50;2.50;;;;;;;;5023099;28;9622;-82
2022/09/06 01:28:10;;;;;;;;;4.00;4.00;;;;;;;;5013997;28;8880;-82
2022/09/06 01:30:41;;;;;;;;;5.00;3.00;;;;;;;;5023157;28;8835;-81
2022/09/06 01:33:12;;;;;;;;;5.00;5.00;;;;;;;;5021079;28;8933;-81
2022/09/06 01:35:43;;;;;;;;;4.25;4.25;;;;;;;;5004429;28;8876;-81
2022/09/06 01:38:10;;;;;;;;;3.00;3.00;;;;;;;;5024199;28;8873;-81
2022/09/06 01:40:38;;;;;;;;;4.50;3.00;;;;;;;;5023360;28;8889;-81
2022/09/06 01:43:08;;;;;;;;;5.75;5.00;;;;;;;;5006254;28;8853;-81
2022/09/06 01:45:54;;;;;;;;;4.50;4.50;;;;;;;;5023109;28;8872;-81
2022/09/06 01:48:29;;;;;;;;;4.25;3.50;;;;;;;;5024269;28;8888;-84
2022/09/06 01:51:09;;;;;;;;;3.00;3.00;;;;;;;;5020110;28;8866;-82
2022/09/06 01:53:46;;;;;;;;;3.00;3.00;;;;;;;;5022160;28;8872;-81
2022/09/06 01:56:22;;;;;;;;;3.00;3.00;;;;;;;;5023699;28;8896;-82
2022/09/06 01:59:30;;;;;;;;;4.75;4.75;;;;;;;;5022526;28;8877;-82
2022/09/06 02:02:02;;;;;;;;;3.00;3.00;;;;;;;;5012444;28;8799;-81
2022/09/06 02:04:33;;;;;;;;;6.00;4.25;;;;;;;;5023019;28;8882;-82
2022/09/06 02:07:03;;;;;;;;;4.00;4.00;;;;;;;;5013433;28;8886;-81
2022/09/06 02:09:36;;;;;;;;;4.75;3.00;;;;;;;;5022757;28;8897;-82
2022/09/06 02:12:05;;;;;;;;;1.75;1.75;;;;;;;;5021823;28;8943;-80
2022/09/06 02:14:38;;;;;;;;;5.00;3.00;;;;;;;;5021317;28;8967;-82
2022/09/06 02:17:07;;;;;;;;;2.00;2.00;;;;;;;;5023179;28;8861;-82
2022/09/06 02:19:38;;;;;;;;;5.00;5.00;;;;;;;;5022357;28;8895;-81
2022/09/06 02:22:09;;;;;;;;;3.00;2.00;;;;;;;;5023490;28;8868;-82
2022/09/06 02:24:39;;;;;;;;;4.25;2.25;;;;;;;;5018380;28;8947;-81
2022/09/06 02:27:07;;;;;;;;;3.00;3.00;;;;;;;;5023311;28;8896;-81
2022/09/06 02:29:36;;;;;;;;;4.50;3.00;;;;;;;;5017421;28;8877;-81
2022/09/06 02:32:07;;;;;;;;;3.00;3.00;;;;;;;;5021972;28;8893;-80
2022/09/06 02:34:38;;;;;;;;;3.00;3.00;;;;;;;;5023286;28;8891;-81
2022/09/06 02:37:06;;;;;;;;;2.75;2.75;;;;;;;;5024200;28;8892;-81
2022/09/06 02:39:34;;;;;;;;;2.25;2.25;;;;;;;;5019781;28;8856;-82
2022/09/06 02:42:03;;;;;;;;;4.50;3.00;;;;;;;;5022448;28;8908;-81
2022/09/06 02:44:32;;;;;;;;;4.25;4.25;;;;;;;;5025748;28;8899;-82
2022/09/06 02:47:02;;;;;;;;;2.00;2.00;;;;;;;;5025929;28;8953;-82
2022/09/06 02:49:29;;;;;;;;;5.00;3.00;;;;;;;;5015522;28;8943;-82
2022/09/06 02:51:57;;;;;;;;;3.00;3.00;;;;;;;;5026528;28;8868;-82
2022/09/06 02:54:24;;;;;;;;;3.00;3.00;;;;;;;;5011182;28;9674;-82
2022/09/06 02:56:52;;;;;;;;;4.75;3.00;;;;;;;;5026162;28;8892;-83
2022/09/06 02:59:19;;;;;;;;;3.75;3.75;;;;;;;;5024778;28;8880;-81
2022/09/06 03:01:46;;;;;;;;;3.00;3.00;;;;;;;;5026654;28;8828;-81
2022/09/06 03:04:15;;;;;;;;;3.75;3.75;;;;;;;;5025058;28;8880;-81
2022/09/06 03:06:42;;;;;;;;;3.75;3.75;;;;;;;;5026470;28;8872;-81
2022/09/06 03:09:10;;;;;;;;;5.25;5.25;;;;;;;;5025789;28;8884;-80
2022/09/06 03:11:37;;;;;;;;;4.00;4.00;;;;;;;;5026322;28;8879;-81
2022/09/06 03:14:05;;;;;;;;;6.00;6.00;;;;;;;;5024941;28;8918;-80
2022/09/06 03:16:32;;;;;;;;;3.50;3.50;;;;;;;;5015994;28;9798;-81
2022/09/06 03:18:59;;;;;;;;;4.75;4.75;;;;;;;;5008829;28;8873;-80
2022/09/06 03:21:28;;;;;;;;;4.75;4.75;;;;;;;;5019251;28;8890;-80
2022/09/06 03:23:55;;;;;;;;;4.75;4.25;;;;;;;;5025802;28;8950;-81
2022/09/06 03:26:22;;;;;;;;;4.00;4.00;;;;;;;;5022015;28;8915;-82
2022/09/06 03:28:50;;;;;;;;;4.75;4.75;;;;;;;;5025832;28;8869;-81
2022/09/06 03:31:17;;;;;;;;;3.50;3.50;;;;;;;;5024600;28;8821;-80
2022/09/06 03:33:45;;;;;;;;;6.75;5.00;;;;;;;;5025325;28;8880;-79
2022/09/06 03:36:12;;;;;;;;;4.75;4.75;;;;;;;;5026098;28;8861;-80
2022/09/06 03:38:40;;;;;;;;;4.00;4.00;;;;;;;;5024934;28;8872;-80
2022/09/06 03:41:08;;;;;;;;;2.50;2.50;;;;;;;;5026019;28;8860;-81
2022/09/06 03:43:35;;;;;;;;;6.50;5.25;;;;;;;;5025002;28;8961;-80
2022/09/06 03:46:03;;;;;;;;;2.00;2.00;;;;;;;;5009632;28;9761;-81
2022/09/06 03:48:30;;;;;;;;;4.25;3.75;;;;;;;;5024376;28;8986;-79
2022/09/06 03:50:59;;;;;;;;;4.00;4.00;;;;;;;;5025765;28;8884;-82
2022/09/06 03:53:27;;;;;;;;;5.00;4.75;;;;;;;;5023449;28;8906;-81
2022/09/06 03:55:57;;;;;;;;;5.00;3.50;;;;;;;;5023495;28;8882;-80
2022/09/06 03:58:28;;;;;;;;;5.00;5.00;;;;;;;;5009220;28;8908;-81
2022/09/06 04:01:04;;;;;;;;;5.00;5.00;;;;;;;;5023991;28;8789;-81
2022/09/06 04:03:31;;;;;;;;;3.00;3.00;;;;;;;;5025638;28;8884;-81
2022/09/06 04:05:58;;;;;;;;;4.25;4.25;;;;;;;;5018869;28;8856;-81
2022/09/06 04:08:25;;;;;;;;;4.25;4.25;;;;;;;;5008436;28;8975;-81
2022/09/06 04:10:55;;;;;;;;;4.50;4.50;;;;;;;;5025125;28;8890;-81
2022/09/06 04:13:23;;;;;;;;;6.25;4.75;;;;;;;;5024140;28;8986;-81
2022/09/06 04:15:51;;;;;;;;;5.75;5.75;;;;;;;;5025220;28;9027;-81
2022/09/06 04:18:18;;;;;;;;;7.00;5.00;;;;;;;;5024000;28;8911;-81
2022/09/06 04:20:48;;;;;;;;;7.00;5.00;;;;;;;;5025160;28;8872;-81
2022/09/06 04:23:15;;;;;;;;;7.50;5.25;;;;;;;;5022156;28;8949;-81
2022/09/06 04:25:46;;;;;;;;;5.50;5.50;;;;;;;;5024858;28;8906;-81
2022/09/06 04:28:17;;;;;;;;;6.75;5.75;;;;;;;;5024997;28;8865;-81
2022/09/06 04:30:44;;;;;;;;;5.25;5.25;;;;;;;;5023092;28;8836;-81
2022/09/06 04:33:12;;;;;;;;;6.25;6.25;;;;;;;;5024822;28;8920;-81
2022/09/06 04:35:39;;;;;;;;;6.50;6.50;;;;;;;;5023815;28;8891;-81
2022/09/06 04:38:07;;;;;;;;;6.25;6.25;;;;;;;;5015132;28;8864;-81
2022/09/06 04:40:34;;;;;;;;;5.00;5.00;;;;;;;;5020545;28;8875;-81
2022/09/06 04:43:01;;;;;;;;;4.75;4.75;;;;;;;;5022973;28;8871;-82
2022/09/06 04:45:30;;;;;;;;;5.75;5.75;;;;;;;;5025662;28;8950;-77
2022/09/06 04:47:57;;;;;;;;;6.00;6.00;;;;;;;;5023385;28;8879;-75
2022/09/06 04:50:24;;;;;;;;;5.00;5.00;;;;;;;;5024095;28;8906;-76
2022/09/06 04:52:52;;;;;;;;;8.50;7.00;;;;;;;;5024243;28;9806;-78
2022/09/06 04:55:19;;;;;;;;;7.75;6.25;;;;;;;;5028669;28;8894;-78
2022/09/06 04:57:46;;;;;;;;;6.25;6.25;;;;;;;;5023638;28;9077;-75
2022/09/06 05:00:16;;;;;;;;;4.25;4.25;;;;;;;;5019425;28;9678;-76
2022/09/06 05:02:47;;;;;;;;;4.00;4.00;;;;;;;;5021853;28;8871;-75
2022/09/06 05:05:15;;;;;;;;;7.25;7.25;;;;;;;;5021705;28;8924;-75
2022/09/06 05:07:42;;;;;;;;;7.00;5.00;;;;;;;;5024332;28;8882;-75
2022/09/06 05:10:10;;;;;;;;;6.50;6.50;;;;;;;;5022999;28;8982;-75
2022/09/06 05:12:37;;;;;;;;;8.00;6.00;;;;;;;;5024055;28;8852;-75
2022/09/06 05:15:05;;;;;;;;;9.25;9.25;;;;;;;;5018051;28;8911;-75
2022/09/06 05:17:32;;;;;;;;;5.25;5.25;;;;;;;;5022000;28;8909;-75
2022/09/06 05:20:02;;;;;;;;;5.75;5.75;;;;;;;;5021678;28;9595;-75
2022/09/06 05:22:29;;;;;;;;;8.25;5.75;;;;;;;;5019739;28;8891;-75
2022/09/06 05:24:56;;;;;;;;;5.50;5.00;;;;;;;;5023139;28;8880;-74
2022/09/06 05:27:24;;;;;;;;;5.25;5.25;;;;;;;;5022277;28;9690;-75
2022/09/06 05:29:51;;;;;;;;;5.50;5.00;;;;;;;;5022452;28;8938;-74
2022/09/06 05:32:18;;;;;;;;;3.25;3.25;;;;;;;;5020509;28;8846;-72
2022/09/06 05:34:45;;;;;;;;;7.25;7.25;;;;;;;;5022549;28;8914;-73
2022/09/06 05:37:14;;;;;;;;;6.75;5.00;;;;;;;;5022216;28;8882;-73
2022/09/06 05:39:42;;;;;;;;;5.75;4.25;;;;;;;;5013371;28;8876;-73
2022/09/06 05:42:09;;;;;;;;;7.00;6.00;;;;;;;;5020767;28;8876;-74
2022/09/06 05:44:37;;;;;;;;;6.25;6.00;;;;;;;;5020372;28;8895;-72
2022/09/06 05:47:05;;;;;;;;;6.75;6.75;;;;;;;;5021213;28;8911;-74
2022/09/06 05:49:33;;;;;;;;;6.25;6.25;;;;;;;;5017438;28;9001;-76
2022/09/06 05:52:00;;;;;;;;;4.50;4.50;;;;;;;;5020166;28;8885;-74
2022/09/06 05:54:29;;;;;;;;;7.25;5.25;;;;;;;;5021404;28;8868;-73
2022/09/06 05:56:57;;;;;;;;;8.00;7.25;;;;;;;;5005377;28;8910;-73
2022/09/06 05:59:25;;;;;;;;;6.00;6.00;;;;;;;;5022766;28;8864;-74
2022/09/06 06:01:54;;;;;;;;;7.00;7.00;;;;;;;;5015443;28;8863;-74
2022/09/06 06:04:22;;;;;;;;;7.50;7.50;;;;;;;;5021305;28;8870;-74
2022/09/06 06:06:50;;;;;;;;;7.50;7.25;;;;;;;;5022266;28;8898;-73
2022/09/06 06:09:18;;;;;;;;;8.75;8.50;;;;;;;;5006089;28;8977;-74
2022/09/06 06:11:47;;;;;;;;;8.75;7.75;;;;;;;;5021822;28;8857;-73
2022/09/06 06:14:15;;;;;;;;;11.75;10.25;;;;;;;;5022664;28;8883;-75
2022/09/06 06:16:42;;;;;;;;;9.00;8.00;;;;;;;;5020616;28;8966;-74
2022/09/06 06:19:10;;;;;;;;;7.75;7.75;;;;;;;;5019814;28;8877;-75
2022/09/06 06:21:37;;;;;;;;;11.50;9.50;;;;;;;;5021091;28;9662;-74
2022/09/06 06:24:06;;;;;;;;;9.25;7.50;;;;;;;;5021274;28;8880;-75
2022/09/06 06:26:35;;;;;;;;;9.00;9.00;;;;;;;;5019821;28;9645;-77
2022/09/06 06:29:06;;;;;;;;;9.00;9.00;;;;;;;;5020159;28;8962;-76
2022/09/06 06:31:34;;;;;;;;;8.75;8.75;;;;;;;;5021638;28;8832;-75
2022/09/06 06:34:02;;;;;;;;;5.50;5.25;;;;;;;;5020366;28;8929;-74
2022/09/06 06:36:32;;;;;;;;;8.75;8.75;;;;;;;;5012751;28;8933;-75
2022/09/06 06:39:00;;;;;;;;;8.50;8.50;;;;;;;;5018925;28;8883;-74
2022/09/06 06:41:29;;;;;;;;;8.25;8.25;;;;;;;;5017423;28;8863;-74
2022/09/06 06:43:58;;;;;;;;;7.00;7.00;;;;;;;;5021699;28;8892;-74
2022/09/06 06:46:28;;;;;;;;;9.00;9.00;;;;;;;;5017859;28;8902;-74
2022/09/06 06:48:56;;;;;;;;;7.25;7.25;;;;;;;;5022522;28;9653;-73
2022/09/06 06:51:24;;;;;;;;;8.50;8.50;;;;;;;;5019599;28;8914;-73
2022/09/06 06:53:52;;;;;;;;;10.00;10.00;;;;;;;;5019001;28;8876;-73
2022/09/06 06:56:21;;;;;;;;;8.50;8.50;;;;;;;;5019710;28;8930;-73
2022/09/06 06:58:51;;;;;;;;;9.50;8.50;;;;;;;;5020444;28;8915;-73
2022/09/06 07:01:19;;;;;;;;;9.75;9.75;;;;;;;;5020609;28;8817;-74
2022/09/06 07:03:49;;;;;;;;;11.50;10.25;;;;;;;;5021039;28;8879;-74
2022/09/06 07:06:17;;;;;;;;;10.00;9.75;;;;;;;;5020842;28;8868;-73
2022/09/06 07:08:45;;;;;;;;;13.00;11.00;;;;;;;;5020484;28;9664;-73
2022/09/06 07:11:15;;;;;;;;;14.50;11.50;;;;;;;;5020776;28;8913;-74
2022/09/06 07:13:43;;;;;;;;;9.75;9.75;;;;;;;;5020141;28;8856;-73
2022/09/06 07:16:12;;;;;;;;;8.25;8.25;;;;;;;;5019619;28;8884;-73
2022/09/06 07:18:41;;;;;;;;;14.00;10.75;;;;;;;;5021733;28;8865;-73
2022/09/06 07:21:12;;;;;;;;;9.50;9.50;;;;;;;;5019867;28;8883;-73
2022/09/06 07:23:39;;;;;;;;;11.00;8.50;;;;;;;;5021558;28;8868;-73
2022/09/06 07:26:07;;;;;;;;;11.50;10.50;;;;;;;;5019778;28;8902;-72
2022/09/06 07:28:34;;;;;;;;;11.25;10.00;;;;;;;;5036301;28;9624;-72
2022/09/06 07:31:02;;;;;;;;;9.25;9.25;;;;;;;;5018637;28;8825;-72
2022/09/06 07:33:29;;;;;;;;;9.50;9.50;;;;;;;;5024675;28;9002;-73
2022/09/06 07:35:58;;;;;;;;;11.75;11.50;;;;;;;;5008138;28;8902;-73
2022/09/06 07:38:27;;;;;;;;;7.25;7.25;;;;;;;;5024297;28;8894;-73
2022/09/06 07:40:56;;;;;;;;;10.50;10.50;;;;;;;;5024694;28;9011;-73
2022/09/06 07:43:24;;;;;;;;;13.25;11.75;;;;;;;;5023487;28;8958;-73
2022/09/06 07:46:00;;;;;;;;;9.00;9.00;;;;;;;;5023908;28;8889;-73
2022/09/06 07:48:30;;;;;;;;;11.75;10.25;;;;;;;;5022165;28;9832;-74
2022/09/06 07:51:04;;;;;;;;;10.00;10.00;;;;;;;;5023980;28;9015;-72
2022/09/06 07:53:34;;;;;;;;;12.60;10.80;;;;;;;;5025105;28;8880;-73
2022/09/06 07:56:04;;;;;;;;;12.00;11.75;;;;;;;;5023772;28;8888;-74
2022/09/06 07:58:32;;;;;;;;;13.00;10.80;;;;;;;;5025131;28;9011;-75
2022/09/06 08:01:17;;;;;;;;;9.40;9.40;;;;;;;;5012428;28;8801;-73
2022/09/06 08:03:45;;;;;;;;;9.40;7.80;;;;;;;;5020193;28;8954;-74
2022/09/06 08:06:12;;;;;;;;;9.20;7.60;;;;;;;;5024751;28;8879;-73
2022/09/06 08:08:41;;;;;;;;;9.60;8.40;;;;;;;;5024351;28;8896;-73
2022/09/06 08:11:09;;;;;;;;;6.80;6.80;;;;;;;;5024045;28;8902;-74
2022/09/06 08:13:37;;;;;;;;;8.40;7.00;;;;;;;;5023145;28;8868;-75
2022/09/06 08:16:06;;;;;;;;;7.60;7.60;;;;;;;;5024585;28;9642;-75
2022/09/06 08:18:34;;;;;;;;;8.40;8.40;;;;;;;;5025014;28;8861;-75
2022/09/06 08:21:10;;;;;;;;;8.80;7.40;;;;;;;;5018988;28;8876;-75
2022/09/06 08:23:37;;;;;;;;;7.20;6.60;;;;;;;;5025058;28;8859;-75
2022/09/06 08:26:06;;;;;;;;;8.00;6.80;;;;;;;;5023259;28;9656;-75
2022/09/06 08:28:34;;;;;;;;;6.20;6.20;;;;;;;;5025335;28;8923;-75
2022/09/06 08:31:08;;;;;;;;;6.00;6.00;;;;;;;;5022478;28;8820;-74
2022/09/06 08:33:36;;;;;;;;;6.00;6.00;;;;;;;;5024523;28;8872;-74
2022/09/06 08:36:04;;;;;;;;;6.00;6.00;;;;;;;;5011634;28;8864;-74
2022/09/06 08:38:32;;;;;;;;;9.20;8.00;;;;;;;;5023664;28;8861;-74
2022/09/06 08:41:10;;;;;;;;;8.00;7.00;;;;;;;;5024095;28;8965;-74
2022/09/06 08:43:38;;;;;;;;;6.60;6.60;;;;;;;;5022563;28;8872;-74
2022/09/06 08:46:07;;;;;;;;;6.60;5.80;;;;;;;;5024591;28;9454;-74
2022/09/06 08:48:38;;;;;;;;;6.00;6.00;;;;;;;;5023194;28;8892;-75
2022/09/06 08:51:30;;;;;;;;;3.80;3.80;;;;;;;;5024404;28;8888;-75
2022/09/06 08:54:06;;;;;;;;;2.20;2.20;;;;;;;;5020764;28;8881;-75
2022/09/06 08:56:42;;;;;;;;;5.20;5.20;;;;;;;;5019129;28;10072;-75
2022/09/06 08:59:16;;;;;;;;;4.80;4.80;;;;;;;;5007541;28;8987;-74
2022/09/06 09:01:53;;;;;;;;;7.60;6.00;;;;;;;;5022143;28;8969;-74
2022/09/06 09:04:25;;;;;;;;;6.60;4.60;;;;;;;;5023372;28;8872;-74
2022/09/06 09:06:58;;;;;;;;;4.60;4.60;;;;;;;;5024113;28;8869;-75
2022/09/06 09:09:29;;;;;;;;;4.80;4.80;;;;;;;;5022743;28;8888;-75
2022/09/06 09:11:58;;;;;;;;;5.00;5.00;;;;;;;;5010563;28;8911;-75
2022/09/06 09:14:29;;;;;;;;;5.00;5.00;;;;;;;;5022375;28;8888;-74
2022/09/06 09:17:02;;;;;;;;;3.80;3.80;;;;;;;;5023958;28;8884;-74
2022/09/06 09:19:32;;;;;;;;;5.60;4.00;;;;;;;;5020667;28;8868;-72
2022/09/06 09:22:00;;;;;;;;;5.00;5.00;;;;;;;;5018545;28;8884;-73
2022/09/06 09:24:30;;;;;;;;;4.00;2.80;;;;;;;;5023746;28;8867;-73
2022/09/06 09:27:04;;;;;;;;;2.80;2.80;;;;;;;;5017553;28;8892;-73
2022/09/06 09:29:31;;;;;;;;;3.20;3.20;;;;;;;;5019455;28;8867;-73
2022/09/06 09:31:59;;;;;;;;;3.80;3.80;;;;;;;;5021702;28;9719;-73
2022/09/06 09:34:32;;;;;;;;;3.60;3.60;;;;;;;;5023862;28;9792;-73
2022/09/06 09:37:14;;;;;;;;;2.20;2.20;;;;;;;;5023621;28;8946;-73
2022/09/06 09:39:41;;;;;;;;;5.80;2.80;;;;;;;;5023785;28;8928;-73
2022/09/06 09:42:10;;;;;;;;;3.60;3.60;;;;;;;;5023801;28;8967;-73
2022/09/06 09:44:43;;;;;;;;;2.40;2.00;;;;;;;;5005864;28;8876;-73
2022/09/06 09:47:24;;;;;;;;;2.60;2.60;;;;;;;;5023459;28;8911;-73
2022/09/06 09:49:51;;;;;;;;;4.00;2.20;;;;;;;;5023294;28;8857;-73
2022/09/06 09:52:25;;;;;;;;;2.20;2.20;;;;;;;;5023686;28;8993;-73
2022/09/06 09:54:54;;;;;;;;;1.80;1.80;;;;;;;;5023021;28;8844;-73
2022/09/06 09:57:24;;;;;;;;;3.20;2.60;;;;;;;;5022826;28;8867;-73
2022/09/06 09:59:53;;;;;;;;;2.60;2.60;;;;;;;;5023288;28;8950;-73
2022/09/06 10:02:25;;;;;;;;;3.60;3.00;;;;;;;;5017034;28;8893;-74
2022/09/06 10:04:59;;;;;;;;;3.80;3.80;;;;;;;;5023009;28;8864;-73
2022/09/06 10:07:26;;;;;;;;;4.00;4.00;;;;;;;;5023115;28;8872;-73
2022/09/06 10:09:59;;;;;;;;;4.40;2.80;;;;;;;;5022979;28;8871;-73
2022/09/06 10:12:31;;;;;;;;;2.00;2.00;;;;;;;;5023962;28;8875;-73
2022/09/06 10:14:58;;;;;;;;;2.40;2.40;;;;;;;;5019641;28;8906;-73
2022/09/06 10:17:30;;;;;;;;;3.60;3.60;;;;;;;;5023332;28;9014;-73
2022/09/06 10:20:01;;;;;;;;;3.00;3.00;;;;;;;;5021681;28;9606;-73
2022/09/06 10:22:30;;;;;;;;;3.00;3.00;;;;;;;;5023131;28;9006;-73
2022/09/06 10:25:36;;;;;;;;;2.20;2.20;;;;;;;;5023400;28;8875;-73
2022/09/06 10:28:30;;;;;;;;;2.00;2.00;;;;;;;;5012693;28;9684;-73
2022/09/06 10:31:36;;;;;;;;;2.80;2.80;;;;;;;;5022857;28;8811;-73
2022/09/06 10:34:32;;;;;;;;;0.60;0.60;;;;;;;;4962076;28;8880;-73
2022/09/06 10:37:08;;;;;;;;;2.40;2.40;;;;;;;;5001671;28;8983;-73
2022/09/06 10:39:44;;;;;;;;;1.00;1.00;;;;;;;;5023604;28;9765;-73
2022/09/06 10:42:19;;;;;;;;;2.40;1.00;;;;;;;;5022640;28;8868;-73
2022/09/06 10:45:03;;;;;;;;;3.00;3.00;;;;;;;;5022449;28;8995;-73
2022/09/06 10:47:38;;;;;;;;;1.00;1.00;;;;;;;;5013992;28;8992;-73
2022/09/06 10:50:07;;;;;;;;;1.40;1.40;;;;;;;;5022533;28;8864;-73
2022/09/06 10:52:37;;;;;;;;;3.00;1.00;;;;;;;;5022294;28;8892;-73
2022/09/06 10:55:08;;;;;;;;;1.00;1.00;;;;;;;;5020602;28;8852;-73
2022/09/06 10:57:40;;;;;;;;;1.80;1.80;;;;;;;;5020794;28;8876;-76
2022/09/06 11:00:13;;;;;;;;;2.40;2.40;;;;;;;;5018503;28;8919;-77
2022/09/06 11:02:47;;;;;;;;;2.00;0.40;;;;;;;;5024359;28;8880;-76
2022/09/06 11:05:19;;;;;;;;;2.40;2.40;;;;;;;;5024038;28;8876;-76
2022/09/06 11:07:49;;;;;;;;;2.60;1.60;;;;;;;;5018950;28;8887;-75
2022/09/06 11:10:20;;;;;;;;;1.40;1.40;;;;;;;;5026157;28;8898;-76
2022/09/06 11:12:52;;;;;;;;;1.40;1.40;;;;;;;;5026692;28;8892;-75
2022/09/06 11:15:23;;;;;;;;;3.60;3.60;;;;;;;;5025999;28;8890;-76
2022/09/06 11:17:55;;;;;;;;;1.60;1.60;;;;;;;;5024368;28;8896;-76
2022/09/06 11:20:25;;;;;;;;;3.20;3.20;;;;;;;;5025025;28;8880;-75
2022/09/06 11:23:17;;;;;;;;;2.00;2.00;;;;;;;;5031589;28;8869;-76
2022/09/06 11:26:08;;;;;;;;;2.00;2.00;;;;;;;;5026968;28;8885;-75
2022/09/06 11:28:37;;;;;;;;;3.60;2.00;;;;;;;;5023403;28;9728;-75
2022/09/06 11:31:09;;;;;;;;;2.00;2.00;;;;;;;;5026106;28;9558;-77
2022/09/06 11:33:38;;;;;;;;;4.80;3.00;;;;;;;;5025606;28;8884;-75
2022/09/06 11:36:23;;;;;;;;;2.40;2.40;;;;;;;;5025946;28;8860;-74
2022/09/06 11:38:55;;;;;;;;;2.20;2.20;;;;;;;;5022484;28;8821;-76
2022/09/06 11:41:29;;;;;;;;;2.00;2.00;;;;;;;;5007078;28;9059;-74
2022/09/06 11:43:56;;;;;;;;;1.80;1.80;;;;;;;;5024065;28;9682;-72
2022/09/06 11:47:11;;;;;;;;;3.20;3.20;;;;;;;;5024735;28;8876;-72
2022/09/06 11:49:40;;;;;;;;;2.00;2.00;;;;;;;;5019972;28;9631;-73
2022/09/06 11:52:56;;;;;;;;;2.40;2.40;;;;;;;;5025928;28;8853;-73
2022/09/06 11:55:30;;;;;;;;;2.40;2.40;;;;;;;;5023220;28;8876;-74
2022/09/06 11:58:00;;;;;;;;;3.40;2.80;;;;;;;;5025517;28;8880;-72
2022/09/06 12:00:28;;;;;;;;;5.20;2.20;;;;;;;;5024684;28;8765;-72
2022/09/06 12:02:57;;;;;;;;;2.00;2.00;;;;;;;;5022251;28;8860;-72
2022/09/06 12:05:27;;;;;;;;;3.00;1.20;;;;;;;;5025233;28;9690;-73
2022/09/06 12:08:30;;;;;;;;;1.00;1.00;;;;;;;;5023021;28;8908;-75
2022/09/06 12:11:03;;;;;;;;;4.20;2.60;;;;;;;;4983088;28;8890;-77
2022/09/06 12:13:35;;;;;;;;;1.40;1.40;;;;;;;;4982594;28;9059;-73
2022/09/06 12:16:03;;;;;;;;;2.80;2.80;;;;;;;;5003299;28;9716;-74
2022/09/06 12:18:56;;;;;;;;;3.60;3.60;;;;;;;;5019450;28;8966;-73
2022/09/06 12:21:39;;;;;;;;;2.40;2.20;;;;;;;;5024158;28;9046;-74
2022/09/06 12:24:08;;;;;;;;;2.40;2.40;;;;;;;;5022825;28;8957;-76
2022/09/06 12:26:50;;;;;;;;;2.40;1.00;;;;;;;;5015250;28;8906;-75
2022/09/06 12:29:25;;;;;;;;;2.40;2.40;;;;;;;;5023783;28;8892;-75
2022/09/06 12:31:54;;;;;;;;;2.00;2.00;;;;;;;;5025412;28;8836;-74
2022/09/06 12:34:25;;;;;;;;;3.80;3.80;;;;;;;;5022406;28;8903;-76
2022/09/06 12:36:58;;;;;;;;;2.20;2.20;;;;;;;;5020261;28;8876;-75
2022/09/06 12:39:26;;;;;;;;;2.40;2.40;;;;;;;;5018932;28;8855;-74
2022/09/06 12:41:58;;;;;;;;;3.00;2.40;;;;;;;;5024591;28;8930;-74
2022/09/06 12:44:32;;;;;;;;;4.00;2.40;;;;;;;;5025306;28;8941;-74
2022/09/06 12:47:10;;;;;;;;;4.40;3.00;;;;;;;;5023724;28;8876;-75
2022/09/06 12:49:40;;;;;;;;;4.00;4.00;;;;;;;;5025735;28;8888;-74
2022/09/06 12:52:10;;;;;;;;;3.60;2.00;;;;;;;;5012751;28;8988;-74
2022/09/06 12:54:47;;;;;;;;;3.40;3.40;;;;;;;;5024205;28;8865;-74
2022/09/06 12:57:18;;;;;;;;;3.00;3.00;;;;;;;;5019780;28;8868;-74
2022/09/06 12:59:53;;;;;;;;;6.80;3.20;;;;;;;;5023566;28;8867;-74
2022/09/06 13:02:27;;;;;;;;;3.80;3.80;;;;;;;;5026945;28;8845;-74
2022/09/06 13:05:04;;;;;;;;;3.60;3.60;;;;;;;;5021138;28;8868;-75
2022/09/06 13:07:34;;;;;;;;;2.00;2.00;;;;;;;;5024724;28;8869;-74
2022/09/06 13:10:03;;;;;;;;;4.40;3.60;;;;;;;;5021157;28;8938;-74
2022/09/06 13:12:35;;;;;;;;;2.60;2.60;;;;;;;;5023442;28;8865;-75
2022/09/06 13:15:07;;;;;;;;;2.00;2.00;;;;;;;;5018521;28;8933;-75
2022/09/06 13:17:36;;;;;;;;;1.60;1.60;;;;;;;;5022946;28;8902;-74
2022/09/06 13:20:14;;;;;;;;;3.00;3.00;;;;;;;;5007350;28;8889;-74
2022/09/06 13:22:44;;;;;;;;;3.00;3.00;;;;;;;;5023709;28;8875;-75
2022/09/06 13:25:17;;;;;;;;;2.80;2.80;;;;;;;;5023314;28;8999;-74
2022/09/06 13:27:48;;;;;;;;;4.00;2.80;;;;;;;;5023755;28;8998;-73
2022/09/06 13:30:37;;;;;;;;;3.20;3.00;;;;;;;;5021888;28;8872;-75
2022/09/06 13:33:06;;;;;;;;;2.60;2.60;;;;;;;;5020034;28;8868;-74
2022/09/06 13:35:38;;;;;;;;;3.80;2.80;;;;;;;;5022593;28;8918;-74
2022/09/06 13:38:23;;;;;;;;;4.80;3.00;;;;;;;;5014626;28;8864;-74
2022/09/06 13:40:51;;;;;;;;;3.00;3.00;;;;;;;;5015803;28;8852;-74
2022/09/06 13:43:23;;;;;;;;;2.60;2.60;;;;;;;;5021582;28;8903;-74
2022/09/06 13:45:57;;;;;;;;;3.20;2.80;;;;;;;;5024132;28;9733;-71
2022/09/06 13:48:24;;;;;;;;;4.00;4.00;;;;;;;;5022995;28;8987;-73
2022/09/06 13:50:53;;;;;;;;;4.00;4.00;;;;;;;;5023909;28;8872;-73
2022/09/06 13:53:21;;;;;;;;;4.60;3.00;;;;;;;;5022863;28;8872;-73
2022/09/06 13:55:48;;;;;;;;;4.00;4.00;;;;;;;;5020450;28;8871;-74
2022/09/06 13:58:15;;;;;;;;;4.00;3.00;;;;;;;;5020467;28;8867;-74
2022/09/06 14:00:43;;;;;;;;;3.60;2.00;;;;;;;;5018219;28;8825;-73
2022/09/06 14:03:21;;;;;;;;;2.00;2.00;;;;;;;;5008174;28;8868;-73
2022/09/06 14:05:49;;;;;;;;;2.80;2.20;;;;;;;;5020103;28;8876;-73
2022/09/06 14:08:17;;;;;;;;;2.40;2.40;;;;;;;;5023411;28;8995;-74
2022/09/06 14:10:48;;;;;;;;;3.00;2.20;;;;;;;;5022552;28;8845;-77
2022/09/06 14:13:15;;;;;;;;;3.00;3.00;;;;;;;;5020686;28;8888;-80
2022/09/06 14:15:44;;;;;;;;;2.00;2.00;;;;;;;;5023722;28;8880;-77
2022/09/06 14:18:11;;;;;;;;;2.00;2.00;;;;;;;;5022281;28;8853;-77
2022/09/06 14:20:39;;;;;;;;;3.40;3.40;;;;;;;;5024562;28;8999;-78
2022/09/06 14:23:07;;;;;;;;;1.60;1.60;;;;;;;;5022177;28;8864;-77
2022/09/06 14:25:37;;;;;;;;;5.00;3.20;;;;;;;;5022631;28;8890;-78
2022/09/06 14:28:05;;;;;;;;;2.40;2.40;;;;;;;;5022620;28;8860;-76
2022/09/06 14:30:33;;;;;;;;;3.00;3.00;;;;;;;;5022299;28;8859;-75
2022/09/06 14:33:00;;;;;;;;;2.20;2.20;;;;;;;;5023009;28;8910;-77
2022/09/06 14:35:27;;;;;;;;;1.80;1.80;;;;;;;;5015732;28;8904;-73
2022/09/06 14:37:55;;;;;;;;;1.20;1.20;;;;;;;;5018569;28;8954;-76
2022/09/06 14:40:22;;;;;;;;;3.60;2.20;;;;;;;;5019658;28;9736;-74
2022/09/06 14:42:51;;;;;;;;;1.00;1.00;;;;;;;;5022133;28;9006;-75
2022/09/06 14:45:19;;;;;;;;;2.00;2.00;;;;;;;;5027054;28;8884;-75
2022/09/06 14:47:47;;;;;;;;;1.00;1.00;;;;;;;;5018048;28;8915;-78
2022/09/06 14:50:18;;;;;;;;;2.00;2.00;;;;;;;;5029804;28;8860;-77
2022/09/06 14:52:46;;;;;;;;;2.20;2.20;;;;;;;;5009522;28;8864;-77
2022/09/06 14:55:13;;;;;;;;;2.00;2.00;;;;;;;;5029204;28;8959;-74
2022/09/06 14:57:40;;;;;;;;;1.60;1.60;;;;;;;;5027169;28;8853;-77
2022/09/06 15:00:11;;;;;;;;;1.20;1.20;;;;;;;;5027499;28;8971;-75
2022/09/06 15:02:38;;;;;;;;;1.80;1.80;;;;;;;;5026744;28;8891;-74
2022/09/06 15:05:06;;;;;;;;;1.00;1.00;;;;;;;;5026372;28;8872;-80
2022/09/06 15:07:33;;;;;;;;;3.00;2.60;;;;;;;;5028565;28;8987;-77
2022/09/06 15:10:01;;;;;;;;;2.00;2.00;;;;;;;;5027205;28;8865;-80
2022/09/06 15:12:29;;;;;;;;;1.80;1.80;;;;;;;;5028175;28;8969;-78
2022/09/06 15:14:56;;;;;;;;;1.80;1.80;;;;;;;;5026322;28;8884;-79
2022/09/06 15:17:25;;;;;;;;;1.20;1.20;;;;;;;;5028527;28;8900;-80
2022/09/06 15:19:53;;;;;;;;;2.80;1.00;;;;;;;;4999472;28;8946;-78